createdAt,value
2019-03-20T00:00:56.692Z,96764.77
2019-03-20T00:03:25.965Z,96777.34
2019-03-20T00:05:55.464Z,96771.63
2019-03-20T00:08:24.729Z,96777.69
2019-03-20T00:10:53.962Z,96775.09
2019-03-20T00:13:23.514Z,96775.92
2019-03-20T00:15:52.734Z,96782.70
2019-03-20T00:18:22.035Z,96781.93
2019-03-20T00:20:51.506Z,96781.88
2019-03-20T00:23:40.599Z,96787.55
2019-03-20T00:26:09.787Z,96786.33
2019-03-20T00:28:39.369Z,96789.34
2019-03-20T00:31:08.613Z,96786.13
2019-03-20T00:44:46.605Z,96780.64
2019-03-20T00:47:15.967Z,96791.54
2019-03-20T00:49:45.699Z,96791.35
2019-03-20T00:52:14.935Z,96784.53
2019-03-20T00:54:44.670Z,96787.75
2019-03-20T00:57:16.120Z,96782.50
2019-03-20T00:59:46.339Z,96783.94
2019-03-20T01:02:15.595Z,96778.92
2019-03-20T01:04:44.779Z,96775.53
2019-03-20T01:07:14.029Z,96776.70
2019-03-20T01:09:43.236Z,96772.78
2019-03-20T01:12:12.474Z,96776.98
2019-03-20T01:14:41.992Z,96772.13
2019-03-20T01:17:11.247Z,96778.20
2019-03-20T01:19:40.435Z,96777.69
2019-03-20T01:22:09.683Z,96777.17
2019-03-20T01:24:38.885Z,96785.55
2019-03-20T01:27:08.148Z,96785.56
2019-03-20T01:29:37.618Z,96783.17
2019-03-20T01:32:06.804Z,96780.26
2019-03-20T01:34:36.328Z,96774.77
2019-03-20T01:37:05.516Z,96782.77
2019-03-20T01:39:34.786Z,96786.27
2019-03-20T01:42:04.074Z,96782.66
2019-03-20T01:44:33.322Z,96778.98
2019-03-20T01:47:02.811Z,96783.39
2019-03-20T01:52:07.095Z,96777.30
2019-03-20T01:54:36.363Z,96784.68
2019-03-20T01:57:05.878Z,96778.05
2019-03-20T01:59:35.064Z,96776.22
2019-03-20T02:02:06.108Z,96772.31
2019-03-20T02:04:35.310Z,96781.97
2019-03-20T02:07:04.562Z,96780.82
2019-03-20T02:09:33.750Z,96770.88
2019-03-20T02:12:02.992Z,96768.66
2019-03-20T02:14:32.194Z,96773.15
2019-03-20T02:17:01.717Z,96774.62
2019-03-20T02:19:31.189Z,96774.87
2019-03-20T02:22:00.433Z,96768.70
2019-03-20T02:24:29.754Z,96767.41
2019-03-20T02:26:58.931Z,96777.42
2019-03-20T02:29:31.913Z,96772.38
2019-03-20T02:32:01.094Z,96773.59
2019-03-20T02:34:30.346Z,96774.70
2019-03-20T02:36:59.534Z,96769.22
2019-03-20T02:39:28.785Z,96768.78
2019-03-20T02:41:57.978Z,96771.80
2019-03-20T02:44:27.216Z,96768.11
2019-03-20T02:46:56.679Z,96769.05
2019-03-20T02:49:25.938Z,96767.66
2019-03-20T02:51:55.401Z,96763.17
2019-03-20T02:54:24.647Z,96763.11
2019-03-20T02:56:53.893Z,96753.35
2019-03-20T02:59:23.135Z,96755.89
2019-03-20T03:01:52.324Z,96756.17
2019-03-20T03:04:21.565Z,96752.55
2019-03-20T03:06:50.770Z,96754.45
2019-03-20T03:09:20.023Z,96752.99
2019-03-20T03:11:49.553Z,96761.59
2019-03-20T03:14:19.070Z,96760.77
2019-03-20T03:16:48.380Z,96764.39
2019-03-20T03:19:17.631Z,96765.84
2019-03-20T03:21:46.815Z,96767.13
2019-03-20T03:24:16.055Z,96768.55
2019-03-20T03:26:45.253Z,96769.08
2019-03-20T03:29:14.775Z,96773.12
2019-03-20T03:31:50.978Z,96764.50
2019-03-20T03:34:20.231Z,96775.64
2019-03-20T03:36:49.431Z,96780.34
2019-03-20T03:41:53.619Z,96772.55
2019-03-20T03:44:22.863Z,96775.52
2019-03-20T03:46:52.043Z,96781.39
2019-03-20T03:49:21.291Z,96782.23
2019-03-20T03:51:50.490Z,96780.95
2019-03-20T03:54:20.082Z,96788.95
2019-03-20T03:57:29.103Z,96787.75
2019-03-20T03:59:58.348Z,96790.45
2019-03-20T04:02:27.539Z,96790.19
2019-03-20T04:04:56.784Z,96789.09
2019-03-20T04:07:25.984Z,96790.63
2019-03-20T04:09:55.242Z,96794.67
2019-03-20T04:12:24.447Z,96803.08
2019-03-20T04:14:53.703Z,96803.62
2019-03-20T04:17:27.417Z,96805.97
2019-03-20T04:19:56.676Z,96805.87
2019-03-20T04:22:25.891Z,96803.52
2019-03-20T04:24:55.126Z,96808.50
2019-03-20T04:27:24.337Z,96802.40
2019-03-20T04:29:53.567Z,96806.16
2019-03-20T04:32:22.767Z,96811.91
2019-03-20T04:34:52.022Z,96807.92
2019-03-20T04:37:21.222Z,96812.16
2019-03-20T04:39:50.473Z,96816.94
2019-03-20T04:42:19.673Z,96819.23
2019-03-20T04:44:48.916Z,96822.45
2019-03-20T04:47:18.115Z,96826.16
2019-03-20T04:49:47.355Z,96813.98
2019-03-20T04:52:16.568Z,96816.33
2019-03-20T04:54:45.830Z,96820.89
2019-03-20T04:57:15.081Z,96824.69
2019-03-20T04:59:44.313Z,96825.19
2019-03-20T05:02:13.494Z,96827.89
2019-03-20T05:04:42.752Z,96831.75
2019-03-20T05:07:11.952Z,96836.52
2019-03-20T05:09:41.234Z,96838.84
2019-03-20T05:12:10.439Z,96841.16
2019-03-20T05:14:39.702Z,96848.73
2019-03-20T05:17:08.883Z,96850.39
2019-03-20T05:19:38.137Z,96850.86
2019-03-20T05:22:07.655Z,96853.91
2019-03-20T05:24:36.858Z,96856.48
2019-03-20T05:27:06.115Z,96858.80
2019-03-20T05:29:35.291Z,96859.05
2019-03-20T05:32:04.540Z,96868.16
2019-03-20T05:34:33.722Z,96872.02
2019-03-20T05:37:10.302Z,96868.25
2019-03-20T05:39:33.928Z,96878.33
2019-03-20T05:42:03.191Z,96874.59
2019-03-20T05:44:32.403Z,96877.61
2019-03-20T05:47:01.652Z,96878.11
2019-03-20T05:49:30.856Z,96873.72
2019-03-20T05:52:00.109Z,96882.59
2019-03-20T05:54:29.302Z,96886.27
2019-03-20T05:56:58.628Z,96890.66
2019-03-20T05:59:27.808Z,96893.80
2019-03-20T06:02:16.131Z,96899.64
2019-03-20T06:04:45.328Z,96899.17
2019-03-20T06:07:21.569Z,96894.56
2019-03-20T06:09:45.489Z,96906.48
2019-03-20T06:12:14.734Z,96905.39
2019-03-20T06:14:43.935Z,96909.45
2019-03-20T06:17:13.180Z,96903.35
2019-03-20T06:19:42.365Z,96914.28
2019-03-20T06:22:11.950Z,96916.16
2019-03-20T06:24:41.150Z,96914.50
2019-03-20T06:27:10.757Z,96915.98
2019-03-20T06:29:39.983Z,96917.79
2019-03-20T06:34:44.129Z,96920.95
2019-03-20T06:37:13.370Z,96916.69
2019-03-20T06:39:42.571Z,96920.11
2019-03-20T06:42:11.911Z,96924.19
2019-03-20T06:44:41.104Z,96927.55
2019-03-20T06:47:10.684Z,96926.27
2019-03-20T06:49:39.944Z,96925.92
2019-03-20T06:52:09.467Z,96938.13
2019-03-20T06:54:38.659Z,96933.95
2019-03-20T06:57:07.960Z,96937.36
2019-03-20T07:00:15.421Z,96941.09
2019-03-20T07:02:47.840Z,96940.56
2019-03-20T07:05:40.903Z,96943.41
2019-03-20T07:08:09.911Z,96947.98
2019-03-20T07:11:18.643Z,96948.57
2019-03-20T07:13:50.458Z,96946.99
2019-03-20T07:16:18.812Z,96957.48
2019-03-20T07:18:48.055Z,96957.77
2019-03-20T07:21:18.781Z,96948.03
2019-03-20T07:23:48.191Z,96954.22
2019-03-20T07:26:17.500Z,96954.55
2019-03-20T07:28:46.760Z,96951.59
2019-03-20T07:31:18.165Z,96950.88
2019-03-20T07:33:47.404Z,96953.53
2019-03-20T07:36:16.592Z,96959.48
2019-03-20T07:38:45.845Z,96956.02
2019-03-20T07:41:15.043Z,96955.29
2019-03-20T07:43:44.296Z,96957.79
2019-03-20T07:46:13.495Z,96956.02
2019-03-20T07:48:42.739Z,96955.24
2019-03-20T07:51:11.926Z,96959.20
2019-03-20T07:53:41.181Z,96960.52
2019-03-20T07:56:10.739Z,96957.27
2019-03-20T07:58:40.059Z,96949.75
2019-03-20T08:01:09.375Z,96952.82
2019-03-20T08:06:30.928Z,96955.34
2019-03-20T08:09:00.692Z,96966.68
2019-03-20T08:11:30.074Z,96959.98
2019-03-20T08:16:34.614Z,96973.88
2019-03-20T08:19:04.082Z,96968.09
2019-03-20T08:21:33.414Z,96969.22
2019-03-20T08:24:02.845Z,96969.73
2019-03-20T08:26:31.998Z,96979.14
2019-03-20T08:29:01.248Z,96978.83
2019-03-20T08:31:30.433Z,96974.41
2019-03-20T08:33:59.675Z,96980.42
2019-03-20T08:36:28.873Z,96986.41
2019-03-20T08:38:58.073Z,96988.98
2019-03-20T08:41:27.315Z,96982.33
2019-03-20T08:43:56.509Z,96984.99
2019-03-20T08:46:25.771Z,96977.39
2019-03-20T08:48:55.255Z,96977.38
2019-03-20T08:51:24.671Z,96982.76
2019-03-20T08:53:56.256Z,96982.41
2019-03-20T08:59:34.444Z,96986.71
2019-03-20T09:02:03.936Z,96982.40
2019-03-20T09:04:35.684Z,96985.55
2019-03-20T09:07:04.436Z,96992.86
2019-03-20T09:09:33.684Z,96986.03
2019-03-20T09:12:02.887Z,96984.18
2019-03-20T09:14:32.141Z,96994.50
2019-03-20T09:17:01.346Z,96992.94
2019-03-20T09:19:30.960Z,96990.41
2019-03-20T09:22:00.328Z,97000.80
2019-03-20T09:24:29.511Z,96993.20
2019-03-20T09:26:58.774Z,96999.75
2019-03-20T09:29:35.697Z,96997.67
2019-03-20T09:31:58.952Z,97001.12
2019-03-20T09:34:28.159Z,96999.86
2019-03-20T09:36:57.671Z,96995.24
2019-03-20T09:39:26.869Z,97003.76
2019-03-20T09:41:56.510Z,96998.49
2019-03-20T09:44:26.161Z,96997.13
2019-03-20T09:46:55.426Z,96998.42
2019-03-20T09:49:24.626Z,97004.66
2019-03-20T09:51:53.878Z,96997.34
2019-03-20T09:54:23.413Z,97000.38
2019-03-20T09:56:52.714Z,96996.31
2019-03-20T09:59:21.920Z,96994.72
2019-03-20T10:01:51.174Z,96990.77
2019-03-20T10:04:20.650Z,96994.73
2019-03-20T10:06:50.053Z,96996.59
2019-03-20T10:09:19.277Z,96992.85
2019-03-20T10:11:48.567Z,96990.91
2019-03-20T10:14:17.784Z,96986.88
2019-03-20T10:16:47.001Z,96981.38
2019-03-20T10:19:16.355Z,96995.30
2019-03-20T10:21:45.553Z,96999.30
2019-03-20T10:24:14.816Z,97000.89
2019-03-20T10:26:44.011Z,96999.62
2019-03-20T10:29:13.397Z,97000.24
2019-03-20T10:31:42.596Z,97007.67
2019-03-20T10:34:11.843Z,97007.52
2019-03-20T10:36:41.046Z,97010.60
2019-03-20T10:42:04.047Z,97006.66
2019-03-20T10:44:33.501Z,97010.34
2019-03-20T10:47:02.932Z,97013.89
2019-03-20T10:49:32.897Z,97006.13
2019-03-20T10:55:10.881Z,97008.20
2019-03-20T10:57:40.768Z,97010.66
2019-03-20T13:05:40.634Z,96978.11
2019-03-20T13:08:09.890Z,96971.91
2019-03-20T13:10:58.163Z,96968.55
2019-03-20T13:13:28.129Z,96970.41
2019-03-20T13:15:57.338Z,96971.97
2019-03-20T13:18:26.606Z,96970.34
2019-03-20T13:20:55.949Z,96958.03
2019-03-20T13:23:27.346Z,96959.05
2019-03-20T13:25:56.547Z,96954.68
2019-03-20T13:28:26.376Z,96952.02
2019-03-20T13:30:58.986Z,96949.11
2019-03-20T13:33:28.180Z,96945.31
2019-03-20T13:35:57.419Z,96943.00
2019-03-20T13:38:26.746Z,96948.92
2019-03-20T13:40:55.995Z,96945.33
2019-03-20T13:43:25.223Z,96942.44
2019-03-20T13:45:54.834Z,96941.73
2019-03-20T13:48:24.049Z,96942.94
2019-03-20T13:50:53.293Z,96934.02
2019-03-20T13:53:22.536Z,96940.70
2019-03-20T13:55:52.315Z,96942.64
2019-03-20T13:58:26.654Z,96938.56
2019-03-20T14:01:03.023Z,96943.13
2019-03-20T14:03:32.576Z,96943.69
2019-03-20T14:06:02.175Z,96944.81
2019-03-20T14:08:31.543Z,96934.75
2019-03-20T14:11:01.597Z,96930.84
2019-03-20T14:13:30.794Z,96934.02
2019-03-20T14:16:00.059Z,96939.45
2019-03-20T14:18:29.301Z,96938.26
2019-03-20T14:20:58.596Z,96931.71
2019-03-20T14:23:27.861Z,96927.75
2019-03-20T14:25:57.252Z,96926.64
2019-03-20T14:28:26.562Z,96930.97
2019-03-20T14:30:55.773Z,96920.48
2019-03-20T14:33:25.034Z,96911.83
2019-03-20T14:35:54.304Z,96919.86
2019-03-20T14:38:25.552Z,96912.51
2019-03-20T14:40:54.981Z,96917.20
2019-03-20T14:43:24.250Z,96914.80
2019-03-20T14:45:53.454Z,96921.35
2019-03-20T14:48:23.037Z,96909.76
2019-03-20T14:50:52.256Z,96902.81
2019-03-20T14:53:21.544Z,96897.72
2019-03-20T14:55:51.267Z,96903.59
2019-03-20T14:58:20.641Z,96905.18
2019-03-20T15:00:49.833Z,96911.12
2019-03-20T15:03:19.170Z,96915.64
2019-03-20T15:05:48.734Z,96903.96
2019-03-20T15:08:18.391Z,96906.22
2019-03-20T15:10:47.610Z,96896.05
2019-03-20T15:13:16.882Z,96897.88
2019-03-20T15:15:49.395Z,96898.69
2019-03-20T15:18:18.765Z,96887.61
2019-03-20T15:20:48.003Z,96894.23
2019-03-20T15:23:17.269Z,96887.55
2019-03-20T15:25:46.843Z,96885.06
2019-03-20T15:28:16.149Z,96889.46
2019-03-20T15:30:45.346Z,96885.45
2019-03-20T15:33:14.590Z,96876.75
2019-03-20T15:35:44.741Z,96880.91
2019-03-20T15:38:13.996Z,96880.13
2019-03-20T15:40:43.478Z,96870.52
2019-03-20T15:43:12.732Z,96871.13
2019-03-20T15:45:41.924Z,96880.59
2019-03-20T15:48:11.188Z,96875.02
2019-03-20T15:50:40.381Z,96880.83
2019-03-20T15:53:09.633Z,96873.39
2019-03-20T15:55:38.850Z,96875.80
2019-03-20T15:58:08.194Z,96865.79
2019-03-20T16:00:38.013Z,96875.37
2019-03-20T16:03:10.756Z,96883.67
2019-03-20T16:08:35.172Z,96878.59
2019-03-20T16:11:06.810Z,96882.73
2019-03-20T16:13:35.400Z,96885.17
2019-03-20T16:16:04.612Z,96885.82
2019-03-20T16:18:33.870Z,96889.53
2019-03-20T16:21:03.129Z,96895.25
2019-03-20T16:23:34.146Z,96895.22
2019-03-20T16:26:03.363Z,96900.85
2019-03-20T16:28:32.661Z,96901.33
2019-03-20T16:31:02.008Z,96904.01
2019-03-20T16:33:31.204Z,96907.82
2019-03-20T16:36:00.742Z,96913.30
2019-03-20T16:38:29.943Z,96922.98
2019-03-20T16:40:59.189Z,96919.62
2019-03-20T16:43:28.385Z,96920.74
2019-03-20T16:45:58.029Z,96932.34
2019-03-20T16:48:27.245Z,96942.12
2019-03-20T16:50:56.502Z,96947.58
2019-03-20T16:53:25.705Z,96948.62
2019-03-20T16:55:54.976Z,96943.87
2019-03-20T16:58:24.245Z,96948.64
2019-03-20T17:00:53.823Z,96953.86
2019-03-20T17:03:23.046Z,96952.78
2019-03-20T17:05:52.263Z,96950.14
2019-03-20T17:08:21.511Z,96953.36
2019-03-20T17:10:50.705Z,96958.20
2019-03-20T17:13:19.956Z,96964.15
2019-03-20T17:15:49.160Z,96963.50
2019-03-20T17:18:18.405Z,96966.86
2019-03-20T17:20:47.604Z,96973.91
2019-03-20T17:23:16.878Z,96973.79
2019-03-20T17:25:46.082Z,96976.86
2019-03-20T17:28:15.712Z,96980.17
2019-03-20T17:30:44.926Z,96992.48
2019-03-20T17:33:42.787Z,96993.75
2019-03-20T17:36:14.538Z,97001.84
2019-03-20T17:39:21.197Z,96998.52
2019-03-20T17:41:50.820Z,96995.92
2019-03-20T17:44:20.031Z,96997.31
2019-03-20T17:46:49.224Z,96998.02
2019-03-20T17:51:53.106Z,96996.45
2019-03-20T17:56:57.614Z,97010.95
2019-03-20T17:59:27.296Z,97015.48
2019-03-20T18:01:56.808Z,97007.70
2019-03-20T18:04:26.126Z,97007.39
2019-03-20T18:06:55.335Z,97002.54
2019-03-20T18:09:24.587Z,97009.81
2019-03-20T18:11:53.791Z,97013.90
2019-03-20T18:14:23.344Z,97016.95
2019-03-20T18:16:52.602Z,97012.45
2019-03-20T18:19:21.906Z,97006.41
2019-03-20T18:21:51.122Z,97009.42
2019-03-20T18:24:20.417Z,97006.70
2019-03-20T18:26:49.647Z,97007.22
2019-03-20T18:29:18.911Z,97014.41
2019-03-20T18:31:48.116Z,97017.69
2019-03-20T18:34:17.368Z,97018.92
2019-03-20T18:36:46.581Z,97026.70
2019-03-20T18:39:15.849Z,97025.79
2019-03-20T18:41:45.601Z,97036.80
2019-03-20T18:44:14.958Z,97032.91
2019-03-20T18:46:44.156Z,97034.66
2019-03-20T18:49:13.406Z,97048.56
2019-03-20T18:51:42.637Z,97047.32
2019-03-20T18:54:11.903Z,97047.58
2019-03-20T18:56:41.095Z,97038.88
2019-03-20T18:59:10.397Z,97046.97
2019-03-20T19:01:59.206Z,97038.04
2019-03-20T19:04:28.887Z,97042.47
2019-03-20T19:06:58.091Z,97030.06
2019-03-20T19:12:08.729Z,97034.33
2019-03-20T19:14:36.279Z,97040.06
2019-03-20T19:17:05.516Z,97045.52
2019-03-20T19:19:34.796Z,97052.17
2019-03-20T19:22:04.016Z,97049.19
2019-03-20T19:24:33.225Z,97047.84
2019-03-20T19:27:02.520Z,97043.73
2019-03-20T19:29:31.737Z,97043.69
2019-03-20T19:32:01.293Z,97050.16
2019-03-20T19:34:30.640Z,97048.33
2019-03-20T19:36:59.885Z,97044.07
2019-03-20T19:39:29.976Z,97040.52
2019-03-20T19:41:59.223Z,97052.29
2019-03-20T19:44:29.121Z,97053.24
2019-03-20T19:46:58.433Z,97047.83
2019-03-20T19:49:27.653Z,97044.79
2019-03-20T19:51:56.996Z,97046.08
2019-03-20T19:54:26.450Z,97044.59
2019-03-20T19:56:56.104Z,97054.64
2019-03-20T19:59:26.087Z,97054.09
2019-03-20T20:04:55.578Z,97060.91
2019-03-20T20:07:24.855Z,97070.38
2019-03-20T20:09:54.167Z,97055.59
2019-03-20T20:12:31.204Z,97058.78
2019-03-20T20:14:55.376Z,97062.07
2019-03-20T20:17:24.811Z,97062.66
2019-03-20T20:19:54.769Z,97059.56
2019-03-20T20:22:23.983Z,97066.34
2019-03-20T20:24:53.260Z,97074.52
2019-03-20T20:27:22.470Z,97065.20
2019-03-20T20:29:51.751Z,97068.20
2019-03-20T20:32:20.962Z,97076.94
2019-03-20T20:34:50.231Z,97078.67
2019-03-20T20:37:19.753Z,97081.02
2019-03-20T20:39:49.138Z,97079.52
2019-03-20T20:42:18.299Z,97076.24
2019-03-20T20:44:47.590Z,97075.80
2019-03-20T20:47:16.796Z,97082.44
2019-03-20T20:49:46.049Z,97086.14
2019-03-20T20:52:19.657Z,97087.41
2019-03-20T20:54:47.150Z,97090.88
2019-03-20T20:57:16.794Z,97094.77
2019-03-20T20:59:46.657Z,97087.83
2019-03-20T21:02:15.860Z,97097.79
2019-03-20T21:04:45.445Z,97096.65
2019-03-20T21:07:14.640Z,97105.17
2019-03-20T21:09:43.889Z,97103.75
2019-03-20T21:12:13.082Z,97101.24
2019-03-20T21:14:43.479Z,97104.28
2019-03-20T21:17:17.646Z,97096.88
2019-03-20T21:19:47.529Z,97092.44
2019-03-20T21:22:54.794Z,97103.31
2019-03-20T21:25:24.915Z,97102.33
2019-03-20T21:28:21.616Z,97104.02
2019-03-20T21:31:29.796Z,97105.77
2019-03-20T21:34:38.087Z,97107.18
2019-03-20T21:37:46.424Z,97101.09
2019-03-20T21:40:19.138Z,97102.22
2019-03-20T21:43:26.988Z,97099.48
2019-03-20T21:46:34.254Z,97097.05
2019-03-20T21:49:04.230Z,97092.94
2019-03-20T21:51:33.976Z,97090.52
2019-03-20T21:54:41.966Z,97089.17
2019-03-20T21:57:51.834Z,97089.92
2019-03-20T22:00:58.480Z,97088.94
2019-03-20T22:03:28.219Z,97092.07
2019-03-20T22:06:35.724Z,97089.05
2019-03-20T22:09:42.994Z,97094.58
2019-03-20T22:12:40.305Z,97096.52
2019-03-20T22:15:32.455Z,97090.95
2019-03-20T22:21:41.478Z,97092.48
2019-03-20T22:24:29.503Z,97080.45
2019-03-20T22:27:40.472Z,97086.53
2019-03-20T22:30:10.784Z,97079.23
2019-03-20T22:36:20.547Z,97073.70
2019-03-20T22:39:27.872Z,97069.59
2019-03-20T22:45:27.789Z,97068.91
2019-03-20T22:48:32.918Z,97073.73
2019-03-20T22:51:24.150Z,97071.83
2019-03-20T22:54:31.431Z,97069.31
2019-03-20T22:57:23.901Z,97072.63
2019-03-20T22:59:53.965Z,97059.63
2019-03-20T23:03:01.292Z,97066.67
2019-03-20T23:05:31.217Z,97064.94
2019-03-20T23:08:00.960Z,97064.86
2019-03-20T23:10:30.766Z,97063.19
2019-03-20T23:13:00.521Z,97063.19
2019-03-20T23:15:30.249Z,97066.05
2019-03-20T23:18:00.032Z,97059.19
2019-03-20T23:20:30.014Z,97062.36
2019-03-20T23:22:59.799Z,97060.41
2019-03-20T23:25:29.539Z,97059.45
2019-03-20T23:27:59.900Z,97050.25
2019-03-20T23:30:29.644Z,97057.07
2019-03-20T23:32:59.431Z,97059.89
2019-03-20T23:35:29.169Z,97055.28
2019-03-20T23:37:58.896Z,97055.51
2019-03-20T23:40:28.676Z,97050.80
2019-03-20T23:42:58.880Z,97055.78
2019-03-20T23:45:28.671Z,97056.78
2019-03-20T23:48:18.816Z,97058.11
2019-03-20T23:50:50.029Z,97053.77
2019-03-20T23:53:20.120Z,97054.77
2019-03-20T23:55:49.856Z,97062.38
2019-03-20T23:58:19.707Z,97063.95
